createdAt,value
2022-09-03T00:00:37.216Z,9.80
2022-09-03T00:03:12.117Z,9.43
2022-09-03T00:05:46.561Z,11.15
2022-09-03T00:08:21.550Z,10.52
2022-09-03T00:10:54.578Z,11.88
2022-09-03T00:13:27.005Z,10.30
2022-09-03T00:15:59.734Z,8.93
2022-09-03T00:18:35.006Z,9.82
2022-09-03T00:21:08.687Z,14.45
2022-09-03T00:23:40.180Z,9.57
2022-09-03T00:26:19.667Z,11.77
2022-09-03T00:28:52.511Z,10.00
2022-09-03T00:31:27.287Z,11.70
2022-09-03T00:34:01.088Z,10.63
2022-09-03T00:36:36.570Z,10.73
2022-09-03T00:39:07.309Z,11.55
2022-09-03T00:41:41.505Z,10.52
2022-09-03T00:44:38.406Z,11.27
2022-09-03T00:47:16.124Z,12.52
2022-09-03T00:49:57.404Z,10.63
2022-09-03T00:52:40.162Z,9.60
2022-09-03T00:55:14.132Z,12.18
2022-09-03T00:57:57.880Z,11.82
2022-09-03T01:00:26.501Z,15.02
2022-09-03T01:03:07.842Z,11.35
2022-09-03T01:05:49.433Z,11.50
2022-09-03T01:08:37.007Z,10.30
2022-09-03T01:11:16.872Z,12.43
2022-09-03T01:13:51.122Z,15.07
2022-09-03T01:16:29.119Z,11.98
2022-09-03T01:19:11.826Z,10.52
2022-09-03T01:22:07.275Z,11.52
2022-09-03T01:24:59.275Z,15.90
2022-09-03T01:27:43.990Z,17.02
2022-09-03T01:30:18.452Z,18.55
2022-09-03T01:32:53.608Z,19.73
2022-09-03T01:35:29.771Z,19.08
2022-09-03T01:38:08.313Z,19.35
2022-09-03T01:40:43.673Z,20.08
2022-09-03T01:43:34.144Z,20.80
2022-09-03T01:46:14.096Z,20.67
2022-09-03T01:48:50.412Z,20.48
2022-09-03T01:51:21.945Z,20.58
2022-09-03T01:54:21.457Z,20.58
2022-09-03T01:57:34.942Z,22.13
2022-09-03T02:00:07.727Z,19.23
2022-09-03T02:02:37.465Z,19.55
2022-09-03T02:05:09.242Z,21.33
2022-09-03T02:07:40.545Z,18.98
2022-09-03T02:10:12.051Z,19.08
2022-09-03T02:12:43.248Z,19.92
2022-09-03T02:15:14.897Z,18.58
2022-09-03T02:17:46.570Z,19.42
2022-09-03T02:20:21.595Z,19.55
2022-09-03T02:22:50.784Z,19.77
2022-09-03T02:25:19.277Z,19.85
2022-09-03T02:27:49.420Z,20.00
2022-09-03T02:30:18.610Z,21.95
2022-09-03T02:32:48.307Z,21.33
2022-09-03T02:35:16.829Z,25.10
2022-09-03T02:37:45.193Z,21.70
2022-09-03T02:40:13.495Z,24.40
2022-09-03T02:42:42.125Z,22.73
2022-09-03T02:45:21.303Z,22.00
2022-09-03T02:47:54.404Z,21.42
2022-09-03T02:50:22.885Z,25.15
2022-09-03T02:52:51.604Z,22.23
2022-09-03T02:55:21.082Z,23.05
2022-09-03T02:57:49.308Z,23.85
2022-09-03T03:00:18.732Z,22.23
2022-09-03T03:02:47.165Z,23.58
2022-09-03T03:05:24.786Z,22.27
2022-09-03T03:07:53.369Z,23.58
2022-09-03T03:10:21.625Z,23.48
2022-09-03T03:12:50.081Z,25.17
2022-09-03T03:15:19.494Z,22.73
2022-09-03T03:17:47.799Z,27.45
2022-09-03T03:20:17.565Z,24.60
2022-09-03T03:22:45.889Z,23.60
2022-09-03T03:25:14.376Z,25.30
2022-09-03T03:27:43.319Z,27.15
2022-09-03T03:30:13.090Z,27.27
2022-09-03T03:32:41.776Z,26.08
2022-09-03T03:35:11.930Z,25.60
2022-09-03T03:37:42.029Z,25.73
2022-09-03T03:40:11.132Z,27.45
2022-09-03T03:42:39.616Z,26.85
2022-09-03T03:45:10.139Z,29.63
2022-09-03T03:47:38.684Z,25.70
2022-09-03T03:50:07.906Z,28.13
2022-09-03T03:52:36.130Z,28.98
2022-09-03T03:55:06.876Z,29.92
2022-09-03T03:57:36.112Z,28.30
2022-09-03T04:00:05.032Z,27.33
2022-09-03T04:02:38.492Z,29.20
2022-09-03T04:05:07.897Z,30.70
2022-09-03T04:07:36.770Z,27.88
2022-09-03T04:10:07.184Z,28.50
2022-09-03T04:12:35.335Z,28.63
2022-09-03T04:15:04.200Z,29.48
2022-09-03T04:17:32.586Z,29.73
2022-09-03T04:20:00.785Z,28.60
2022-09-03T04:22:30.435Z,29.52
2022-09-03T04:24:58.818Z,29.17
2022-09-03T04:27:28.300Z,29.35
2022-09-03T04:29:56.627Z,29.45
2022-09-03T04:32:42.287Z,31.10
2022-09-03T04:35:11.032Z,32.83
2022-09-03T04:37:39.442Z,30.58
2022-09-03T04:40:08.543Z,32.05
2022-09-03T04:42:38.053Z,30.80
2022-09-03T04:45:06.887Z,29.25
2022-09-03T04:47:36.539Z,31.40
2022-09-03T04:50:05.470Z,35.00
2022-09-03T04:52:33.878Z,30.92
2022-09-03T04:55:02.370Z,29.38
2022-09-03T04:57:34.528Z,31.30
2022-09-03T05:00:04.870Z,33.38
2022-09-03T05:02:33.341Z,36.47
2022-09-03T05:05:01.673Z,32.28
2022-09-03T05:07:38.435Z,33.60
2022-09-03T05:10:08.515Z,34.10
2022-09-03T05:12:36.827Z,32.85
2022-09-03T05:15:07.468Z,33.03
2022-09-03T05:17:38.541Z,37.35
2022-09-03T05:20:07.735Z,35.05
2022-09-03T05:22:36.060Z,35.28
2022-09-03T05:25:04.566Z,35.63
2022-09-03T05:27:33.278Z,34.40
2022-09-03T05:30:01.614Z,32.40
2022-09-03T05:32:34.341Z,33.92
2022-09-03T05:35:02.932Z,41.70
2022-09-03T05:37:31.369Z,39.15
2022-09-03T05:39:59.808Z,35.67
2022-09-03T05:42:28.346Z,34.22
2022-09-03T05:44:58.017Z,37.92
2022-09-03T05:47:26.235Z,39.90
2022-09-03T05:49:55.717Z,36.60
2022-09-03T05:52:23.885Z,32.53
2022-09-03T05:54:52.246Z,34.42
2022-09-03T05:57:20.769Z,47.67
2022-09-03T05:59:48.926Z,36.40
2022-09-03T06:02:18.050Z,43.08
2022-09-03T06:04:48.194Z,37.55
2022-09-03T06:07:17.651Z,37.17
2022-09-03T06:09:45.885Z,42.65
2022-09-03T06:12:14.227Z,40.78
2022-09-03T06:14:42.916Z,38.70
2022-09-03T06:17:12.704Z,36.25
2022-09-03T06:19:41.136Z,41.50
2022-09-03T06:22:09.578Z,37.15
2022-09-03T06:24:39.034Z,39.67
2022-09-03T06:27:08.402Z,41.10
2022-09-03T06:29:38.693Z,39.25
2022-09-03T06:32:07.235Z,37.00
2022-09-03T06:34:35.674Z,41.03
2022-09-03T06:37:04.116Z,40.63
2022-09-03T06:39:32.392Z,40.25
2022-09-03T06:42:01.896Z,34.95
2022-09-03T06:44:30.194Z,33.60
2022-09-03T06:47:01.391Z,31.83
2022-09-03T06:49:30.748Z,36.08
2022-09-03T06:51:58.957Z,32.05
2022-09-03T06:54:27.539Z,33.47
2022-09-03T06:56:55.955Z,31.42
2022-09-03T06:59:25.528Z,35.47
2022-09-03T07:01:53.990Z,32.30
2022-09-03T07:04:24.911Z,31.50
2022-09-03T07:06:53.153Z,30.48
2022-09-03T07:09:21.459Z,34.05
2022-09-03T07:11:49.917Z,32.15
2022-09-03T07:14:20.021Z,36.88
2022-09-03T07:16:50.765Z,29.73
2022-09-03T07:19:19.304Z,30.15
2022-09-03T07:21:50.486Z,29.33
2022-09-03T07:24:21.950Z,35.35
2022-09-03T07:26:50.446Z,33.60
2022-09-03T07:29:21.791Z,33.03
2022-09-03T07:31:53.220Z,29.65
2022-09-03T07:34:25.478Z,28.25
2022-09-03T07:36:54.188Z,34.15
2022-09-03T07:39:22.670Z,30.23
2022-09-03T07:41:51.209Z,32.72
2022-09-03T07:44:20.703Z,27.98
2022-09-03T07:46:51.750Z,28.15
2022-09-03T07:49:22.553Z,30.00
2022-09-03T07:51:54.642Z,26.83
2022-09-03T07:54:24.126Z,26.45
2022-09-03T07:56:52.769Z,20.83
2022-09-03T07:59:23.049Z,28.33
2022-09-03T08:01:52.143Z,24.75
2022-09-03T08:04:23.015Z,24.15
2022-09-03T08:06:55.572Z,21.90
2022-09-03T08:09:24.556Z,19.52
2022-09-03T08:11:53.012Z,21.23
2022-09-03T08:14:22.118Z,18.88
2022-09-03T08:16:50.319Z,21.65
2022-09-03T08:19:19.357Z,19.63
2022-09-03T08:21:49.085Z,21.98
2022-09-03T08:24:19.192Z,18.67
2022-09-03T08:26:51.774Z,14.20
2022-09-03T08:29:21.493Z,18.35
2022-09-03T08:31:49.875Z,19.50
2022-09-03T08:34:18.571Z,17.77
2022-09-03T08:36:48.980Z,16.75
2022-09-03T08:39:17.696Z,14.93
2022-09-03T08:42:11.996Z,15.63
2022-09-03T08:44:47.334Z,15.60
2022-09-03T08:47:20.826Z,16.08
2022-09-03T08:49:54.509Z,20.00
2022-09-03T08:52:27.915Z,15.38
2022-09-03T08:55:04.052Z,17.55
2022-09-03T08:57:38.008Z,19.45
2022-09-03T09:00:07.054Z,17.08
2022-09-03T09:02:46.016Z,15.75
2022-09-03T09:05:19.497Z,17.08
2022-09-03T09:07:54.579Z,19.05
2022-09-03T09:10:29.541Z,15.77
2022-09-03T09:13:09.650Z,15.35
2022-09-03T09:15:45.802Z,13.80
2022-09-03T09:18:23.181Z,11.85
2022-09-03T09:20:54.755Z,13.25
2022-09-03T09:23:29.522Z,14.70
2022-09-03T09:26:00.543Z,13.32
2022-09-03T09:28:34.539Z,15.00
2022-09-03T09:31:05.187Z,15.30
2022-09-03T09:33:34.636Z,15.40
2022-09-03T09:36:06.296Z,11.75
2022-09-03T09:38:37.781Z,12.20
2022-09-03T09:41:13.861Z,13.55
2022-09-03T09:43:42.318Z,12.73
2022-09-03T09:46:14.912Z,13.93
2022-09-03T09:48:50.518Z,14.25
2022-09-03T09:51:24.631Z,13.05
2022-09-03T09:54:04.738Z,11.10
2022-09-03T09:56:33.094Z,11.98
2022-09-03T09:59:05.215Z,14.18
2022-09-03T10:01:33.908Z,11.75
2022-09-03T10:04:10.709Z,12.95
2022-09-03T10:06:58.066Z,13.32
2022-09-03T10:09:30.975Z,13.57
2022-09-03T10:12:11.151Z,16.17
2022-09-03T10:14:43.630Z,15.35
2022-09-03T10:17:18.178Z,18.20
2022-09-03T10:20:11.930Z,12.82
2022-09-03T10:22:52.446Z,15.20
2022-09-03T10:25:33.003Z,14.40
2022-09-03T10:28:02.220Z,14.18
2022-09-03T10:30:34.393Z,13.52
2022-09-03T10:33:12.805Z,13.63
2022-09-03T10:35:47.324Z,13.05
2022-09-03T10:38:22.941Z,15.00
2022-09-03T10:41:02.579Z,14.32
2022-09-03T10:43:52.057Z,15.38
2022-09-03T10:46:27.500Z,17.48
2022-09-03T10:49:11.949Z,19.30
2022-09-03T10:51:49.255Z,15.82
2022-09-03T10:54:32.588Z,15.75
2022-09-03T10:57:10.132Z,17.27
2022-09-03T10:59:53.928Z,14.80
2022-09-03T11:02:37.101Z,12.38
2022-09-03T11:05:09.614Z,14.88
2022-09-03T11:07:43.082Z,18.33
2022-09-03T11:10:19.500Z,15.32
2022-09-03T11:12:56.282Z,15.25
2022-09-03T11:15:29.220Z,15.90
2022-09-03T11:18:02.612Z,16.17
2022-09-03T11:20:32.222Z,18.98
2022-09-03T11:23:02.803Z,15.95
2022-09-03T11:25:35.572Z,19.20
2022-09-03T11:28:14.364Z,19.38
2022-09-03T11:31:14.560Z,16.15
2022-09-03T11:33:48.050Z,14.35
2022-09-03T11:36:28.141Z,15.05
2022-09-03T11:38:56.753Z,14.77
2022-09-03T11:41:27.570Z,12.43
2022-09-03T11:44:00.117Z,15.80
2022-09-03T11:46:33.260Z,13.48
2022-09-03T11:49:13.407Z,13.80
2022-09-03T11:51:44.093Z,15.27
2022-09-03T11:54:26.660Z,12.27
2022-09-03T11:57:11.691Z,13.20
2022-09-03T11:59:42.660Z,14.32
2022-09-03T12:02:28.988Z,18.58
2022-09-03T12:05:16.054Z,14.95
2022-09-03T12:08:12.942Z,16.35
2022-09-03T12:10:52.216Z,14.48
2022-09-03T12:13:34.536Z,16.02
2022-09-03T12:16:33.045Z,16.98
2022-09-03T12:19:12.789Z,16.00
2022-09-03T12:21:41.598Z,16.60
2022-09-03T12:24:13.684Z,15.93
2022-09-03T12:26:43.132Z,11.75
2022-09-03T12:29:27.631Z,11.57
2022-09-03T12:32:06.853Z,14.05
2022-09-03T12:34:35.155Z,17.95
2022-09-03T12:37:03.551Z,20.40
2022-09-03T12:42:25.185Z,17.30
2022-09-03T12:44:53.788Z,14.52
2022-09-03T12:47:40.652Z,15.27
2022-09-03T12:50:11.477Z,11.00
2022-09-03T12:52:43.828Z,9.85
2022-09-03T12:55:28.448Z,12.07
2022-09-03T12:58:03.507Z,9.88
2022-09-03T13:00:34.751Z,8.88
2022-09-03T13:03:07.807Z,10.23
2022-09-03T13:05:38.070Z,8.93
2022-09-03T13:08:09.769Z,9.45
2022-09-03T13:10:41.982Z,6.78
2022-09-03T13:13:22.223Z,7.22
2022-09-03T13:16:22.680Z,6.45
2022-09-03T13:18:58.185Z,6.10
2022-09-03T13:21:37.911Z,6.15
2022-09-03T13:24:30.219Z,6.30
2022-09-03T13:27:10.533Z,5.97
2022-09-03T13:29:50.461Z,7.30
2022-09-03T13:32:31.697Z,6.65
2022-09-03T13:35:10.553Z,6.20
2022-09-03T13:37:42.985Z,5.15
2022-09-03T13:40:19.494Z,4.68
2022-09-03T13:42:54.239Z,5.72
2022-09-03T13:45:33.023Z,5.25
2022-09-03T13:48:25.449Z,6.85
2022-09-03T13:51:03.567Z,5.93
2022-09-03T13:53:43.237Z,4.50
2022-09-03T13:56:22.320Z,4.63
2022-09-03T13:58:57.145Z,4.55
2022-09-03T14:01:35.090Z,4.70
2022-09-03T14:04:05.639Z,4.50
2022-09-03T14:06:43.126Z,4.05
2022-09-03T14:09:21.184Z,5.78
2022-09-03T14:11:57.281Z,5.10
2022-09-03T14:14:40.513Z,5.70
2022-09-03T14:17:20.406Z,6.30
2022-09-03T14:19:58.242Z,5.05
2022-09-03T14:22:35.829Z,4.28
2022-09-03T14:25:11.111Z,5.00
2022-09-03T14:27:39.479Z,4.55
2022-09-03T14:30:19.112Z,4.55
2022-09-03T14:32:55.352Z,5.35
2022-09-03T14:35:51.930Z,5.10
2022-09-03T14:38:39.664Z,5.65
2022-09-03T14:41:20.791Z,9.20
2022-09-03T14:44:29.034Z,5.65
2022-09-03T14:47:11.835Z,7.78
2022-09-03T14:49:55.006Z,5.50
2022-09-03T14:53:01.061Z,5.63
2022-09-03T14:55:49.546Z,5.57
2022-09-03T14:58:30.843Z,5.30
2022-09-03T15:01:04.324Z,7.00
2022-09-03T15:04:00.167Z,5.82
2022-09-03T15:06:40.409Z,5.07
2022-09-03T15:09:22.649Z,6.75
2022-09-03T15:11:56.655Z,7.60
2022-09-03T15:14:30.771Z,16.90
2022-09-03T15:17:02.116Z,17.45
2022-09-03T15:19:52.494Z,16.33
2022-09-03T15:22:37.889Z,20.40
2022-09-03T15:25:21.474Z,20.85
2022-09-03T15:28:01.933Z,22.02
2022-09-03T15:30:36.784Z,22.23
2022-09-03T15:33:19.650Z,21.60
2022-09-03T15:36:02.839Z,23.42
2022-09-03T15:38:43.392Z,22.35
2022-09-03T15:41:19.908Z,24.27
2022-09-03T15:43:52.125Z,27.65
2022-09-03T15:46:41.250Z,26.23
2022-09-03T15:49:20.309Z,28.20
2022-09-03T15:51:59.913Z,26.98
2022-09-03T15:54:36.746Z,27.92
2022-09-03T15:57:09.217Z,25.33
2022-09-03T15:59:43.391Z,24.08
2022-09-03T16:02:16.945Z,37.10
2022-09-03T16:04:57.366Z,27.85
2022-09-03T16:07:31.548Z,29.92
2022-09-03T16:10:26.093Z,23.58
2022-09-03T16:13:04.901Z,29.30
2022-09-03T16:15:41.400Z,30.33
2022-09-03T16:18:17.819Z,32.80
2022-09-03T16:20:54.514Z,27.25
2022-09-03T16:23:27.863Z,29.75
2022-09-03T16:26:00.742Z,33.83
2022-09-03T16:28:32.366Z,36.38
2022-09-03T16:31:15.550Z,31.80
2022-09-03T16:33:55.168Z,29.10
2022-09-03T16:36:33.908Z,28.73
2022-09-03T16:39:11.143Z,26.33
2022-09-03T16:41:48.593Z,30.65
2022-09-03T16:44:24.844Z,27.45
2022-09-03T16:47:02.900Z,35.80
2022-09-03T16:49:52.490Z,28.58
2022-09-03T16:52:38.662Z,26.88
2022-09-03T16:55:19.476Z,29.75
2022-09-03T16:58:00.881Z,25.70
2022-09-03T17:00:37.961Z,22.90
2022-09-03T17:03:28.936Z,20.27
2022-09-03T17:06:15.108Z,24.35
2022-09-03T17:08:55.258Z,23.02
2022-09-03T17:11:43.365Z,22.45
2022-09-03T17:14:28.462Z,20.58
2022-09-03T17:17:05.790Z,23.80
2022-09-03T17:19:43.286Z,25.17
2022-09-03T17:22:23.304Z,30.42
2022-09-03T17:25:00.568Z,30.92
2022-09-03T17:27:49.807Z,30.70
2022-09-03T17:30:23.319Z,32.85
2022-09-03T17:33:26.234Z,33.22
2022-09-03T17:36:04.528Z,37.42
2022-09-03T17:38:54.128Z,44.90
2022-09-03T17:41:33.989Z,45.85
2022-09-03T17:44:07.437Z,44.80
2022-09-03T17:46:46.244Z,41.97
2022-09-03T17:49:22.723Z,36.42
2022-09-03T17:52:03.083Z,38.95
2022-09-03T17:54:40.484Z,38.95
2022-09-03T17:57:19.369Z,38.78
2022-09-03T17:59:54.258Z,38.63
2022-09-03T18:02:31.123Z,37.10
2022-09-03T18:05:04.405Z,41.10
2022-09-03T18:07:43.256Z,39.22
2022-09-03T18:10:21.072Z,40.38
2022-09-03T18:13:01.398Z,43.45
2022-09-03T18:15:38.724Z,42.25
2022-09-03T18:18:12.621Z,39.67
2022-09-03T18:21:26.617Z,37.38
2022-09-03T18:24:19.678Z,38.05
2022-09-03T18:27:11.617Z,44.30
2022-09-03T18:30:05.452Z,44.20
2022-09-03T18:32:51.422Z,43.83
2022-09-03T18:35:37.502Z,44.13
2022-09-03T18:38:23.531Z,47.92
2022-09-03T18:41:17.196Z,45.80
2022-09-03T18:44:13.845Z,48.08
2022-09-03T18:50:24.196Z,44.67
2022-09-03T18:53:16.684Z,46.50
2022-09-03T18:56:19.346Z,44.13
2022-09-03T18:59:17.736Z,41.00
2022-09-03T19:02:03.990Z,42.55
2022-09-03T19:05:01.401Z,43.13
2022-09-03T19:07:54.263Z,44.53
2022-09-03T19:10:52.559Z,43.08
2022-09-03T19:13:50.694Z,41.17
2022-09-03T19:16:43.897Z,45.45
2022-09-03T19:19:46.481Z,44.70
2022-09-03T19:22:40.742Z,43.45
2022-09-03T19:25:29.829Z,41.30
2022-09-03T19:28:25.316Z,38.63
2022-09-03T19:31:24.451Z,36.90
2022-09-03T19:34:18.503Z,33.90
2022-09-03T19:37:14.203Z,28.33
2022-09-03T19:40:22.004Z,30.45
2022-09-03T19:43:18.225Z,29.65
2022-09-03T19:46:15.806Z,29.42
2022-09-03T19:49:16.003Z,28.33
2022-09-03T19:52:13.885Z,27.02
2022-09-03T19:54:59.913Z,29.38
2022-09-03T19:57:48.181Z,28.33
2022-09-03T20:00:34.533Z,25.30
2022-09-03T20:03:23.544Z,25.90
2022-09-03T20:06:11.487Z,22.83
2022-09-03T20:08:57.722Z,22.15
2022-09-03T20:11:29.583Z,23.52
2022-09-03T20:14:14.222Z,25.73
2022-09-03T20:16:49.204Z,25.15
2022-09-03T20:19:26.426Z,25.35
2022-09-03T20:22:00.819Z,29.98
2022-09-03T20:24:40.200Z,28.52
2022-09-03T20:27:17.853Z,32.15
2022-09-03T20:29:59.760Z,25.00
2022-09-03T20:32:58.641Z,25.95
2022-09-03T20:35:38.602Z,24.15
2022-09-03T20:38:19.076Z,22.67
2022-09-03T20:40:51.246Z,21.55
2022-09-03T20:43:38.128Z,20.15
2022-09-03T20:46:17.507Z,16.85
2022-09-03T20:48:52.486Z,12.70
2022-09-03T20:51:27.183Z,13.43
2022-09-03T20:54:10.058Z,11.32
2022-09-03T20:56:59.317Z,11.15
2022-09-03T20:59:41.971Z,12.38
2022-09-03T21:02:20.910Z,10.15
2022-09-03T21:04:55.440Z,11.15
2022-09-03T21:07:35.739Z,11.73
2022-09-03T21:10:13.465Z,13.95
2022-09-03T21:12:49.174Z,11.57
2022-09-03T21:15:25.035Z,10.23
2022-09-03T21:18:04.459Z,10.60
2022-09-03T21:20:40.948Z,12.65
2022-09-03T21:23:20.748Z,11.75
2022-09-03T21:25:55.221Z,10.38
2022-09-03T21:28:26.994Z,11.48
2022-09-03T21:30:59.093Z,9.75
2022-09-03T21:33:30.108Z,13.02
2022-09-03T21:36:07.770Z,9.88
2022-09-03T21:38:39.203Z,11.15
2022-09-03T21:41:18.146Z,10.38
2022-09-03T21:43:54.160Z,11.90
2022-09-03T21:46:26.575Z,12.57
2022-09-03T21:48:59.217Z,10.75
2022-09-03T21:51:32.367Z,11.35
2022-09-03T21:54:06.200Z,11.90
2022-09-03T21:56:57.107Z,13.48
2022-09-03T22:00:00.189Z,12.07
2022-09-03T22:02:29.990Z,12.00
2022-09-03T22:05:00.305Z,11.02
2022-09-03T22:07:40.259Z,11.90
2022-09-03T22:10:16.741Z,11.25
2022-09-03T22:12:57.065Z,13.13
2022-09-03T22:15:25.905Z,12.45
2022-09-03T22:17:59.554Z,12.30
2022-09-03T22:20:28.246Z,11.77
2022-09-03T22:22:59.071Z,13.57
2022-09-03T22:25:38.307Z,13.48
2022-09-03T22:28:14.291Z,15.35
2022-09-03T22:30:52.046Z,13.30
2022-09-03T22:33:24.903Z,13.45
2022-09-03T22:36:03.686Z,14.73
2022-09-03T22:38:47.560Z,14.82
2022-09-03T22:41:33.122Z,14.45
2022-09-03T22:44:13.530Z,15.20
2022-09-03T22:46:54.903Z,15.57
2022-09-03T22:49:35.160Z,14.18
2022-09-03T22:52:26.152Z,14.00
2022-09-03T22:55:06.442Z,15.32
2022-09-03T22:57:42.829Z,14.35
2022-09-03T23:00:12.225Z,17.48
2022-09-03T23:02:42.364Z,16.02
2022-09-03T23:05:23.680Z,17.35
2022-09-03T23:07:55.955Z,18.25
2022-09-03T23:10:29.792Z,20.60
2022-09-03T23:13:07.521Z,19.33
2022-09-03T23:15:39.051Z,19.27
2022-09-03T23:18:10.899Z,17.85
2022-09-03T23:20:42.264Z,22.75
2022-09-03T23:23:17.493Z,19.52
2022-09-03T23:25:50.425Z,20.13
2022-09-03T23:28:25.425Z,21.13
2022-09-03T23:30:55.836Z,22.02
2022-09-03T23:33:24.514Z,24.20
2022-09-03T23:36:01.788Z,20.65
2022-09-03T23:38:42.193Z,21.15
2022-09-03T23:41:17.079Z,22.95
2022-09-03T23:44:02.043Z,26.52
2022-09-03T23:46:36.001Z,30.67
2022-09-03T23:49:27.000Z,29.42
2022-09-03T23:52:12.556Z,27.27
2022-09-03T23:54:47.667Z,32.55
2022-09-03T23:57:24.558Z,35.80
